createdAt,value
2023-01-13T00:09:21.924Z,24.1943359375
2023-01-13T00:19:21.843Z,24.8046875
2023-01-13T00:29:21.768Z,23.30322265625
2023-01-13T00:39:21.707Z,25.7080078125
2023-01-13T00:49:21.624Z,26.4892578125
2023-01-13T00:59:21.660Z,26.2939453125
2023-01-13T01:09:21.503Z,25.9033203125
2023-01-13T01:19:21.454Z,27.392578125
2023-01-13T01:29:21.365Z,26.708984375
2023-01-13T01:39:21.298Z,27.197265625
2023-01-13T01:49:21.258Z,27.490234375
2023-01-13T01:59:21.130Z,26.1962890625
2023-01-13T02:09:21.077Z,27.392578125
2023-01-13T02:19:21.096Z,27.392578125
2023-01-13T02:29:20.942Z,26.904296875
2023-01-13T02:39:20.873Z,26.1962890625
2023-01-13T02:49:20.792Z,25.8056640625
2023-01-13T02:59:20.716Z,24.8046875
2023-01-13T03:09:20.657Z,24.59716796875
2023-01-13T03:19:20.717Z,23.9990234375
2023-01-13T03:29:20.508Z,22.49755859375
2023-01-13T03:39:20.470Z,21.8017578125
2023-01-13T03:49:20.437Z,20.8984375
2023-01-13T03:59:20.412Z,20.60546875
2023-01-13T04:09:20.254Z,19.8974609375
2023-01-13T04:19:20.173Z,20.20263671875
2023-01-13T04:29:20.093Z,19.7021484375
2023-01-13T04:39:20.026Z,19.49462890625
2023-01-13T04:49:20.171Z,19.39697265625
2023-01-13T04:59:19.938Z,19.20166015625
2023-01-13T05:09:19.836Z,19.29931640625
2023-01-13T05:19:19.717Z,18.798828125
2023-01-13T05:29:19.687Z,18.505859375
2023-01-13T05:39:19.575Z,18.39599609375
2023-01-13T05:49:19.539Z,18.29833984375
2023-01-13T05:59:19.476Z,18.10302734375
2023-01-13T06:09:19.384Z,18.20068359375
2023-01-13T06:19:19.319Z,17.7978515625
2023-01-13T06:29:19.227Z,17.7001953125
2023-01-13T06:39:19.284Z,17.5048828125
2023-01-13T06:49:21.457Z,17.10205078125
2023-01-13T06:59:19.054Z,16.69921875
2023-01-13T07:09:18.978Z,16.19873046875
2023-01-13T07:19:20.779Z,16.00341796875
2023-01-13T07:29:18.848Z,15.90576171875
2023-01-13T07:39:18.769Z,15.6005859375
2023-01-13T07:49:18.675Z,15.19775390625
2023-01-13T07:59:18.611Z,15.00244140625
2023-01-13T08:09:18.636Z,14.794921875
2023-01-13T08:19:18.572Z,14.599609375
2023-01-13T08:29:18.394Z,14.29443359375
2023-01-13T08:39:18.358Z,14.29443359375
2023-01-13T08:49:18.264Z,14.19677734375
2023-01-13T08:59:18.182Z,14.00146484375
2023-01-13T09:09:18.122Z,13.5986328125
2023-01-13T09:19:18.172Z,13.5009765625
2023-01-13T09:29:18.007Z,13.4033203125
2023-01-13T09:39:17.941Z,13.4033203125
2023-01-13T09:49:17.839Z,13.3056640625
2023-01-13T09:59:17.770Z,13.19580078125
2023-01-13T10:09:17.749Z,13.09814453125
2023-01-13T10:19:17.626Z,12.90283203125
2023-01-13T10:29:17.706Z,12.90283203125
2023-01-13T10:39:17.491Z,12.6953125
2023-01-13T10:49:17.443Z,12.59765625
2023-01-13T10:59:17.375Z,12.6953125
2023-01-13T11:09:17.291Z,12.6953125
2023-01-13T11:19:17.211Z,12.6953125
2023-01-13T11:29:17.185Z,12.59765625
2023-01-13T11:39:17.103Z,12.6953125
2023-01-13T11:49:17.031Z,13.09814453125
2023-01-13T11:59:16.940Z,13.4033203125
2023-01-13T12:09:16.905Z,12.90283203125
2023-01-13T12:19:16.782Z,12.59765625
2023-01-13T12:29:16.726Z,12.5
2023-01-13T12:39:16.644Z,12.40234375
2023-01-13T12:49:16.608Z,12.200927734375
2023-01-13T12:59:16.554Z,12.200927734375
2023-01-13T13:09:16.455Z,12.200927734375
2023-01-13T13:19:16.389Z,12.09716796875
2023-01-13T13:29:16.336Z,11.99951171875
2023-01-13T13:39:16.264Z,11.99951171875
2023-01-13T13:49:16.163Z,11.90185546875
2023-01-13T13:59:16.108Z,11.90185546875
2023-01-13T14:09:15.986Z,11.798095703125
2023-01-13T14:19:15.901Z,11.798095703125
2023-01-13T14:29:15.854Z,11.90185546875
2023-01-13T14:39:15.730Z,11.99951171875
2023-01-13T14:49:15.693Z,11.99951171875
2023-01-13T14:59:15.627Z,12.09716796875
2023-01-13T15:09:15.559Z,12.200927734375
2023-01-13T15:19:15.496Z,12.298583984375
2023-01-13T15:29:15.388Z,12.09716796875
2023-01-13T15:39:15.343Z,12.09716796875
2023-01-13T15:49:15.257Z,12.298583984375
2023-01-13T15:59:15.184Z,12.200927734375
2023-01-13T16:09:15.219Z,12.40234375
2023-01-13T16:19:15.169Z,12.09716796875
2023-01-13T16:29:14.994Z,11.798095703125
2023-01-13T16:39:14.955Z,11.4990234375
2023-01-13T16:49:14.941Z,11.602783203125
2023-01-13T16:59:14.880Z,11.4990234375
2023-01-13T17:09:14.815Z,11.4990234375
2023-01-13T17:19:14.721Z,11.602783203125
2023-01-13T17:29:14.663Z,11.602783203125
2023-01-13T17:39:14.577Z,11.90185546875
2023-01-13T17:49:14.558Z,11.602783203125
2023-01-13T17:59:14.471Z,11.4990234375
2023-01-13T18:09:14.401Z,11.4013671875
2023-01-13T18:19:14.286Z,11.4013671875
2023-01-13T18:29:14.235Z,11.4013671875
2023-01-13T18:39:14.162Z,11.4013671875
2023-01-13T18:49:14.084Z,11.4013671875
2023-01-13T18:59:14.024Z,11.4990234375
2023-01-13T19:09:13.977Z,11.602783203125
2023-01-13T19:19:13.894Z,11.798095703125
2023-01-13T19:29:13.809Z,11.90185546875
2023-01-13T19:39:13.743Z,12.09716796875
2023-01-13T19:49:13.727Z,12.200927734375
2023-01-13T19:59:13.630Z,12.298583984375
2023-01-13T20:09:13.535Z,12.59765625
2023-01-13T20:19:13.500Z,12.80517578125
2023-01-13T20:29:13.403Z,13.19580078125
2023-01-13T20:39:13.362Z,14.09912109375
2023-01-13T20:49:13.284Z,15.29541015625
2023-01-13T20:59:13.300Z,17.19970703125
2023-01-13T21:09:13.157Z,18.10302734375
2023-01-13T21:19:13.047Z,18.994140625
2023-01-13T21:29:13.016Z,19.6044921875
2023-01-13T21:39:12.938Z,20.49560546875
2023-01-13T21:49:12.870Z,20.60546875
2023-01-13T21:59:12.802Z,21.10595703125
2023-01-13T22:09:12.718Z,22.39990234375
2023-01-13T22:19:13.447Z,21.39892578125
2023-01-13T22:29:12.573Z,23.095703125
2023-01-13T22:39:12.486Z,22.39990234375
2023-01-13T22:49:12.405Z,22.49755859375
2023-01-13T22:59:12.408Z,23.30322265625
2023-01-13T23:09:12.291Z,21.7041015625
2023-01-13T23:19:12.207Z,22.0947265625
2023-01-13T23:29:12.152Z,21.49658203125
2023-01-13T23:39:12.079Z,22.705078125
2023-01-13T23:49:12.018Z,22.802734375
2023-01-13T23:59:11.951Z,21.8994140625
